Time;durP1;ratioP1;P1;durP2;ratioP2;P2;SDS_P1;SDS_P2;PMS_P1;PMS_P2;Temp;Humidity;BMP_temperature;BMP_pressure;BME280_temperature;BME280_humidity;BME280_pressure;Samples;Min_cycle;Max_cycle;Signal;HPM_P1;HPM_P2
2022/01/08 00:00:50;;;;;;;23.85;14.13;;;;;;;0.45;100.00;100951.00;5117926;28;20038;-64
2022/01/08 00:03:16;;;;;;;22.30;13.57;;;;;;;0.48;100.00;100960.50;5118108;28;20028;-65
2022/01/08 00:05:41;;;;;;;20.48;13.10;;;;;;;0.46;100.00;100962.16;5117705;28;20046;-66
2022/01/08 00:08:06;;;;;;;20.75;12.95;;;;;;;0.41;100.00;100959.44;5117810;28;20027;-64
2022/01/08 00:10:32;;;;;;;20.25;11.65;;;;;;;0.30;100.00;100948.84;5117742;28;20065;-66
2022/01/08 00:13:01;;;;;;;24.90;12.30;;;;;;;0.28;100.00;100952.19;5117455;28;20075;-64
2022/01/08 00:15:26;;;;;;;19.95;12.15;;;;;;;0.32;100.00;100965.22;5117880;28;20039;-67
2022/01/08 00:17:52;;;;;;;23.05;12.80;;;;;;;0.30;100.00;100966.84;5117862;28;20452;-65
2022/01/08 00:20:17;;;;;;;19.65;12.55;;;;;;;0.29;100.00;100971.97;5117639;28;20096;-66
2022/01/08 00:22:42;;;;;;;21.77;11.88;;;;;;;0.23;100.00;100970.06;5116655;28;20036;-66
2022/01/08 00:25:08;;;;;;;21.33;11.88;;;;;;;0.28;100.00;100976.22;5117599;28;20061;-65
2022/01/08 00:27:33;;;;;;;19.70;11.73;;;;;;;0.21;100.00;100973.41;5117645;28;20042;-67
2022/01/08 00:29:59;;;;;;;22.70;12.95;;;;;;;0.19;100.00;100972.50;5117622;28;20413;-64
2022/01/08 00:32:25;;;;;;;23.33;12.73;;;;;;;0.20;100.00;100972.53;5117406;28;20032;-63
2022/01/08 00:34:50;;;;;;;20.77;12.23;;;;;;;0.17;100.00;100971.59;5117407;28;20047;-64
2022/01/08 00:37:16;;;;;;;21.83;12.27;;;;;;;0.21;100.00;100989.72;5116985;28;20343;-65
2022/01/08 00:39:41;;;;;;;26.17;13.50;;;;;;;0.20;100.00;100990.56;5117437;28;20031;-65
2022/01/08 00:42:06;;;;;;;20.55;13.05;;;;;;;0.20;100.00;100980.25;5117471;28;20035;-65
2022/01/08 00:44:31;;;;;;;23.10;15.68;;;;;;;0.23;100.00;100984.63;5117272;28;20110;-64
2022/01/08 00:46:57;;;;;;;26.52;15.20;;;;;;;0.22;100.00;100988.91;5117026;28;20036;-66
2022/01/08 00:49:24;;;;;;;29.88;15.80;;;;;;;0.26;100.00;100992.44;5117041;28;20024;-64
2022/01/08 00:51:50;;;;;;;26.40;14.38;;;;;;;0.23;100.00;101006.09;5117071;28;20066;-65
2022/01/08 00:54:15;;;;;;;23.15;14.02;;;;;;;0.29;100.00;101018.28;5116927;28;20069;-65
2022/01/08 00:56:40;;;;;;;23.60;14.63;;;;;;;0.30;100.00;101009.75;5117290;28;20036;-64
2022/01/08 00:59:05;;;;;;;24.08;13.43;;;;;;;0.32;100.00;101011.53;5116711;28;20039;-65
2022/01/08 01:01:31;;;;;;;26.33;13.95;;;;;;;0.31;100.00;100998.63;5116871;28;20482;-65
2022/01/08 01:03:57;;;;;;;27.27;15.75;;;;;;;0.33;100.00;100999.53;5116514;28;20038;-65
2022/01/08 01:06:22;;;;;;;26.60;16.35;;;;;;;0.31;100.00;101007.22;5116284;28;20472;-65
2022/01/08 01:08:48;;;;;;;27.00;15.10;;;;;;;0.32;100.00;100995.22;5116621;28;20084;-65
2022/01/08 01:11:14;;;;;;;23.10;14.48;;;;;;;0.25;100.00;100989.00;5116523;28;20395;-64
2022/01/08 01:13:39;;;;;;;23.02;14.10;;;;;;;0.28;100.00;101007.13;5116458;28;20070;-65
2022/01/08 01:16:04;;;;;;;21.40;13.27;;;;;;;0.17;100.00;100997.31;5116688;28;20042;-65
2022/01/08 01:18:30;;;;;;;20.42;13.30;;;;;;;0.19;100.00;101001.66;5116553;28;20028;-64
2022/01/08 01:20:55;;;;;;;24.48;14.27;;;;;;;0.16;100.00;101006.75;5116516;28;20092;-66
2022/01/08 01:23:28;;;;;;;23.73;13.50;;;;;;;0.14;100.00;101003.25;5116166;28;20059;-63
2022/01/08 01:25:59;;;;;;;24.33;13.27;;;;;;;0.13;100.00;101003.19;5098630;28;20384;-65
2022/01/08 01:28:36;;;;;;;23.73;13.25;;;;;;;0.03;100.00;100999.44;5116418;28;20035;-65
2022/01/08 01:47:01;;;;;;;28.45;17.08;;;;;;;-0.25;100.00;101010.56;5118667;28;20047;-66
2022/01/08 01:49:27;;;;;;;30.45;17.08;;;;;;;-0.16;100.00;101030.53;5116142;28;20031;-66
2022/01/08 01:51:55;;;;;;;30.10;18.25;;;;;;;-0.12;100.00;101010.13;5116121;28;20031;-64
2022/01/08 01:54:20;;;;;;;29.17;18.42;;;;;;;-0.13;100.00;101021.22;5115789;28;20057;-66
2022/01/08 01:56:45;;;;;;;31.83;18.13;;;;;;;-0.06;100.00;101017.19;5115835;28;20036;-68
2022/01/08 01:59:12;;;;;;;31.88;18.60;;;;;;;-0.16;100.00;101005.69;5115610;28;20028;-67
2022/01/08 02:01:37;;;;;;;30.80;18.38;;;;;;;-0.13;100.00;101003.22;5115911;28;20032;-65
2022/01/08 02:04:03;;;;;;;28.52;17.58;;;;;;;-0.14;100.00;101011.78;5115689;28;20110;-65
2022/01/08 02:06:28;;;;;;;30.00;17.67;;;;;;;-0.12;100.00;101009.25;5115780;28;20039;-64
2022/01/08 02:08:53;;;;;;;29.23;17.50;;;;;;;-0.19;100.00;101009.91;5115533;28;20086;-67
2022/01/08 02:11:20;;;;;;;35.20;18.25;;;;;;;-0.19;100.00;101017.63;5115248;28;20430;-67
2022/01/08 02:13:46;;;;;;;32.35;17.83;;;;;;;-0.26;100.00;101019.09;5115539;28;20344;-67
2022/01/08 02:16:17;;;;;;;36.03;19.15;;;;;;;-0.26;100.00;101023.38;5115338;28;20038;-65
2022/01/08 02:18:44;;;;;;;30.70;19.75;;;;;;;-0.30;100.00;101012.09;5115527;28;20035;-65
2022/01/08 02:21:10;;;;;;;31.10;19.92;;;;;;;-0.32;100.00;101018.00;5115055;28;20080;-66
2022/01/08 02:23:36;;;;;;;36.72;20.90;;;;;;;-0.32;100.00;101021.44;5115081;28;20430;-65
2022/01/08 02:26:03;;;;;;;30.80;19.80;;;;;;;-0.33;100.00;101022.28;5115320;28;20027;-66
2022/01/08 02:28:28;;;;;;;33.53;20.38;;;;;;;-0.30;100.00;101011.22;5115423;28;20031;-65
2022/01/08 02:30:53;;;;;;;35.55;21.13;;;;;;;-0.31;100.00;101030.03;5115271;28;20142;-64
2022/01/08 02:33:24;;;;;;;36.28;20.98;;;;;;;-0.26;100.00;101031.06;5115445;28;20030;-65
2022/01/08 02:35:49;;;;;;;38.53;20.50;;;;;;;-0.30;100.00;101024.94;5115246;28;20044;-66
2022/01/08 02:38:15;;;;;;;36.53;20.95;;;;;;;-0.25;100.00;101026.00;5115277;28;20031;-66
2022/01/08 02:40:49;;;;;;;35.97;21.58;;;;;;;-0.23;100.00;101031.19;5115362;28;20043;-67
2022/01/08 02:43:14;;;;;;;35.15;21.30;;;;;;;-0.22;100.00;101031.25;5115640;28;20100;-66
2022/01/08 02:45:40;;;;;;;35.70;21.25;;;;;;;-0.20;100.00;101036.44;5118209;28;20040;-65
2022/01/08 02:48:05;;;;;;;42.90;21.02;;;;;;;-0.21;100.00;101030.41;5119656;28;20043;-65
2022/01/08 02:50:30;;;;;;;36.78;21.13;;;;;;;-0.16;100.00;101036.56;5119364;28;20362;-65
2022/01/08 02:52:56;;;;;;;38.85;20.40;;;;;;;-0.10;100.00;101038.47;5119469;28;20038;-66
2022/01/08 02:55:21;;;;;;;35.22;20.30;;;;;;;-0.11;100.00;101034.16;5119160;28;20024;-65
2022/01/08 02:57:47;;;;;;;40.00;20.88;;;;;;;-0.13;100.00;101030.66;5119286;28;20096;-64
2022/01/08 03:00:16;;;;;;;40.75;20.90;;;;;;;-0.12;100.00;101038.41;5119379;28;20110;-66
2022/01/08 03:02:44;;;;;;;34.22;20.98;;;;;;;-0.10;100.00;101033.31;5101029;28;20062;-65
2022/01/08 03:05:11;;;;;;;38.10;21.13;;;;;;;-0.10;100.00;101031.63;5119000;28;20024;-66
2022/01/08 03:07:38;;;;;;;41.40;21.35;;;;;;;-0.07;100.00;101041.16;5119185;28;20027;-66
2022/01/08 03:10:03;;;;;;;38.78;20.83;;;;;;;-0.12;100.00;101029.81;5118791;28;20466;-66
2022/01/08 03:12:30;;;;;;;43.00;21.30;;;;;;;-0.10;100.00;101034.19;5118939;28;20119;-65
2022/01/08 03:14:55;;;;;;;37.83;21.75;;;;;;;-0.07;100.00;101036.88;5119043;28;20123;-65
2022/01/08 03:17:20;;;;;;;33.60;20.20;;;;;;;-0.09;100.00;101037.66;5118931;28;20059;-67
2022/01/08 03:19:46;;;;;;;38.03;20.65;;;;;;;-0.12;100.00;101030.69;5118687;28;20070;-65
2022/01/08 03:22:12;;;;;;;36.17;20.25;;;;;;;-0.13;100.00;101030.66;5118838;28;20043;-66
2022/01/08 03:24:39;;;;;;;40.40;20.27;;;;;;;-0.04;100.00;101044.69;5118359;28;20119;-64
2022/01/08 03:27:05;;;;;;;39.63;20.35;;;;;;;-0.07;100.00;101031.72;5118917;28;20373;-66
2022/01/08 03:29:30;;;;;;;43.40;21.50;;;;;;;-0.07;100.00;101041.16;5118750;28;20099;-65
2022/01/08 03:31:55;;;;;;;42.47;20.25;;;;;;;-0.07;100.00;101038.56;5118890;28;20449;-66
2022/01/08 03:34:21;;;;;;;38.35;20.05;;;;;;;-0.11;100.00;101024.72;5118669;28;20031;-66
2022/01/08 03:36:46;;;;;;;34.58;20.60;;;;;;;-0.11;100.00;101037.59;5118479;28;20038;-66
2022/01/08 03:39:12;;;;;;;44.47;19.63;;;;;;;-0.13;100.00;101033.22;5118433;28;20323;-66
2022/01/08 03:41:37;;;;;;;35.25;19.63;;;;;;;-0.12;100.00;101034.97;5118417;28;20453;-66
2022/01/08 03:44:03;;;;;;;43.28;20.02;;;;;;;-0.06;100.00;101043.78;5100236;28;20110;-66
2022/01/08 03:46:33;;;;;;;35.60;18.63;;;;;;;-0.04;100.00;101042.13;5118365;28;20035;-65
2022/01/08 03:49:43;;;;;;;35.85;19.45;;;;;;;-0.08;100.00;101035.13;5118132;28;20097;-66
2022/01/08 03:51:44;;;;;;;36.85;19.35;;;;;;;-0.12;100.00;101034.97;5104004;28;20039;-66
2022/01/08 03:54:09;;;;;;;37.25;18.30;;;;;;;-0.15;100.00;101033.16;5118119;28;20175;-65
2022/01/08 03:56:34;;;;;;;34.97;18.95;;;;;;;-0.16;100.00;101027.97;5117199;28;20110;-65
2022/01/08 03:58:59;;;;;;;33.05;19.10;;;;;;;-0.17;100.00;101036.50;5118226;28;20332;-66
2022/01/08 04:01:25;;;;;;;33.08;18.88;;;;;;;-0.18;100.00;101037.38;5118056;28;20023;-67
2022/01/08 04:03:50;;;;;;;38.95;19.27;;;;;;;-0.21;100.00;101043.28;5117629;28;20225;-66
2022/01/08 04:06:15;;;;;;;41.35;20.13;;;;;;;-0.20;100.00;101044.16;5117703;28;20119;-65
2022/01/08 04:08:41;;;;;;;36.40;18.23;;;;;;;-0.17;100.00;101052.81;5118292;28;20088;-65
2022/01/08 04:11:06;;;;;;;38.83;19.38;;;;;;;-0.19;100.00;101063.91;5117754;28;20406;-65
2022/01/08 04:13:35;;;;;;;32.80;18.95;;;;;;;-0.26;100.00;101049.94;5117262;28;20090;-64
2022/01/08 04:16:10;;;;;;;34.00;19.17;;;;;;;-0.35;100.00;101027.38;5117876;28;20039;-63
2022/01/08 04:18:35;;;;;;;35.22;19.40;;;;;;;-0.24;100.00;101050.88;5117679;28;20073;-65
2022/01/08 04:23:37;;;;;;;31.25;19.17;;;;;;;-0.25;100.00;101050.81;5117604;28;20039;-65
2022/01/08 04:26:03;;;;;;;41.17;19.23;;;;;;;-0.21;100.00;101051.00;5117706;28;20087;-65
2022/01/08 04:28:28;;;;;;;33.28;19.23;;;;;;;-0.23;100.00;101049.19;5117629;28;20059;-65
2022/01/08 04:30:53;;;;;;;31.90;18.55;;;;;;;-0.15;100.00;101065.72;5117323;28;20118;-65
2022/01/08 04:33:19;;;;;;;32.70;19.35;;;;;;;-0.14;100.00;101072.63;5117297;28;20355;-64
2022/01/08 04:35:44;;;;;;;34.30;19.88;;;;;;;-0.18;100.00;101074.25;5117362;28;20028;-64
2022/01/08 04:38:11;;;;;;;32.05;19.60;;;;;;;-0.16;100.00;101070.00;5117582;28;20431;-64
2022/01/08 04:40:36;;;;;;;36.83;19.70;;;;;;;-0.21;100.00;101070.69;5117411;28;20031;-65
2022/01/08 04:43:02;;;;;;;36.33;21.10;;;;;;;-0.10;100.00;101075.34;5117267;28;20438;-64
2022/01/08 04:45:29;;;;;;;36.00;20.00;;;;;;;-0.08;100.00;101076.28;5117008;28;20039;-65
2022/01/08 04:47:57;;;;;;;36.58;20.33;;;;;;;-0.07;100.00;101069.44;5117190;28;20024;-66
2022/01/08 04:50:23;;;;;;;31.35;19.65;;;;;;;-0.05;100.00;101076.38;5117006;28;20122;-65
2022/01/08 04:52:48;;;;;;;32.60;18.63;;;;;;;-0.09;100.00;101076.22;5117060;28;20127;-64
2022/01/08 04:55:13;;;;;;;32.88;18.35;;;;;;;-0.15;100.00;101069.16;5116967;28;20058;-64
2022/01/08 04:57:39;;;;;;;29.33;18.73;;;;;;;-0.09;100.00;101078.81;5116327;28;20032;-64
2022/01/08 05:00:05;;;;;;;30.52;18.65;;;;;;;-0.07;100.00;101097.72;5117201;28;20430;-65
2022/01/08 05:02:30;;;;;;;41.42;19.63;;;;;;;-0.09;100.00;101097.69;5116809;28;20035;-64
2022/01/08 05:04:55;;;;;;;31.25;17.60;;;;;;;-0.16;100.00;101081.97;5116784;28;20334;-64
2022/01/08 05:07:21;;;;;;;32.92;18.85;;;;;;;-0.15;100.00;101083.72;5116439;28;20035;-65
2022/01/08 05:09:46;;;;;;;34.65;18.15;;;;;;;-0.13;100.00;101097.50;5116735;28;20073;-65
2022/01/08 05:12:12;;;;;;;32.90;17.75;;;;;;;-0.18;100.00;101087.09;5116367;28;20382;-67
2022/01/08 05:14:37;;;;;;;30.50;17.48;;;;;;;-0.16;100.00;101099.97;5116770;28;20451;-66
2022/01/08 05:17:02;;;;;;;35.60;17.40;;;;;;;-0.19;100.00;101102.47;5116454;28;20488;-67
2022/01/08 05:19:42;;;;;;;33.25;17.40;;;;;;;-0.19;100.00;101105.91;5116656;28;20435;-65
2022/01/08 05:22:10;;;;;;;30.42;17.10;;;;;;;-0.24;100.00;101096.28;5116454;28;20045;-66
2022/01/08 05:24:36;;;;;;;30.27;17.25;;;;;;;-0.27;100.00;101098.75;5116430;28;20050;-65
2022/01/08 05:27:03;;;;;;;34.33;17.67;;;;;;;-0.21;100.00;101105.00;5116235;28;20023;-65
2022/01/08 05:29:30;;;;;;;29.42;17.23;;;;;;;-0.17;100.00;101086.25;5116154;28;20111;-67
2022/01/08 05:31:55;;;;;;;38.40;18.17;;;;;;;-0.10;100.00;101095.06;5116054;28;20127;-66
2022/01/08 05:34:20;;;;;;;26.42;15.90;;;;;;;0.00;100.00;101099.69;5116379;28;20103;-66
2022/01/08 05:36:45;;;;;;;25.60;16.02;;;;;;;0.01;100.00;101088.56;5116242;28;20453;-65
2022/01/08 05:39:11;;;;;;;30.15;15.63;;;;;;;0.09;100.00;101094.84;5115681;28;20031;-66
2022/01/08 05:41:36;;;;;;;27.55;14.88;;;;;;;0.14;100.00;101088.16;5116241;28;20110;-66
2022/01/08 05:44:01;;;;;;;29.98;15.50;;;;;;;0.12;100.00;101081.22;5115954;28;20039;-65
2022/01/08 05:46:26;;;;;;;28.45;14.63;;;;;;;0.15;100.00;101082.19;5115983;28;20024;-66
2022/01/08 05:48:52;;;;;;;31.48;15.35;;;;;;;0.06;100.00;101083.56;5116091;28;20028;-65
2022/01/08 05:51:17;;;;;;;28.77;14.48;;;;;;;0.06;100.00;101099.88;5116279;28;20058;-65
2022/01/08 05:53:42;;;;;;;27.73;14.60;;;;;;;-0.02;100.00;101101.34;5116183;28;20032;-65
2022/01/08 05:56:08;;;;;;;27.15;14.77;;;;;;;-0.07;100.00;101093.47;5115643;28;20032;-65
2022/01/08 05:58:33;;;;;;;27.90;14.13;;;;;;;-0.01;100.00;101113.38;5115368;28;20041;-65
2022/01/08 06:00:59;;;;;;;27.70;14.35;;;;;;;-0.06;100.00;101090.06;5115698;28;20023;-67
2022/01/08 06:03:24;;;;;;;26.02;14.00;;;;;;;-0.03;100.00;101115.03;5115532;28;20088;-65
2022/01/08 06:05:49;;;;;;;30.38;14.45;;;;;;;-0.17;100.00;101116.22;5115869;28;20081;-65
2022/01/08 06:08:14;;;;;;;30.70;14.68;;;;;;;-0.18;100.00;101122.22;5115618;28;20036;-66
2022/01/08 06:10:40;;;;;;;25.95;15.13;;;;;;;-0.16;100.00;101124.00;5115740;28;20335;-66
2022/01/08 06:13:06;;;;;;;26.63;15.45;;;;;;;-0.23;100.00;101103.19;5114964;28;20023;-68
2022/01/08 06:15:31;;;;;;;30.88;16.20;;;;;;;-0.25;100.00;101112.53;5115821;28;20122;-66
2022/01/08 06:17:56;;;;;;;34.25;16.33;;;;;;;-0.23;100.00;101108.31;5115439;28;20114;-68
2022/01/08 06:20:21;;;;;;;31.92;15.73;;;;;;;-0.08;100.00;101129.41;5113919;28;20031;-67
2022/01/08 06:22:47;;;;;;;32.38;15.80;;;;;;;-0.05;100.00;101126.97;5095013;28;20118;-66
2022/01/08 06:25:12;;;;;;;30.33;15.80;;;;;;;-0.06;100.00;101136.38;5095264;28;20024;-67
2022/01/08 06:27:37;;;;;;;33.30;15.93;;;;;;;0.04;100.00;101136.66;5094986;28;20043;-69
2022/01/08 06:30:04;;;;;;;30.23;15.05;;;;;;;0.04;100.00;101128.94;5094915;28;20028;-67
2022/01/08 06:32:29;;;;;;;31.02;15.73;;;;;;;0.06;100.00;101133.31;5095061;28;20032;-68
2022/01/08 06:34:54;;;;;;;30.13;15.40;;;;;;;0.00;100.00;101122.84;5094730;28;20442;-66
2022/01/08 06:37:20;;;;;;;30.92;15.82;;;;;;;0.05;100.00;101128.13;5094821;28;20024;-65
2022/01/08 06:39:45;;;;;;;25.42;13.73;;;;;;;0.03;100.00;101110.06;5095001;28;20421;-66
2022/01/08 06:42:10;;;;;;;30.30;15.52;;;;;;;0.14;100.00;101116.47;5094986;28;20478;-65
2022/01/08 06:44:36;;;;;;;25.88;15.00;;;;;;;0.05;100.00;101100.69;5094717;28;20327;-68
2022/01/08 06:47:01;;;;;;;32.33;15.15;;;;;;;0.10;100.00;101106.00;5094799;28;20099;-67
2022/01/08 06:49:26;;;;;;;29.90;15.20;;;;;;;0.04;100.00;101101.53;5094630;28;20052;-68
2022/01/08 06:51:51;;;;;;;28.27;14.98;;;;;;;0.08;100.00;101113.69;5094845;28;20028;-66
2022/01/08 06:54:17;;;;;;;26.58;14.38;;;;;;;0.04;100.00;101095.50;5094776;28;20389;-65
2022/01/08 06:56:42;;;;;;;28.58;15.27;;;;;;;-0.03;100.00;101092.75;5094821;28;20031;-67
2022/01/08 06:59:07;;;;;;;25.30;14.65;;;;;;;-0.03;100.00;101100.47;5094688;28;20036;-66
2022/01/08 07:01:33;;;;;;;26.33;14.77;;;;;;;-0.05;100.00;101090.94;5100303;28;20028;-66
2022/01/08 07:03:59;;;;;;;25.52;14.55;;;;;;;-0.01;100.00;101103.97;5097214;28;20035;-66
2022/01/08 07:06:24;;;;;;;26.40;14.75;;;;;;;-0.10;100.00;101100.19;5094645;28;20062;-66
2022/01/08 07:08:50;;;;;;;28.92;15.82;;;;;;;-0.11;100.00;101111.31;5094911;28;20184;-66
2022/01/08 07:11:16;;;;;;;34.20;16.35;;;;;;;-0.16;100.00;101106.00;5094204;28;20039;-67
2022/01/08 07:13:42;;;;;;;24.08;14.77;;;;;;;-0.15;100.00;101104.31;5094468;28;20051;-67
2022/01/08 07:16:07;;;;;;;32.75;16.52;;;;;;;-0.17;100.00;101099.09;5094196;28;20043;-65
2022/01/08 07:18:32;;;;;;;32.38;16.25;;;;;;;-0.25;100.00;101082.56;5094470;28;20077;-65
2022/01/08 07:20:58;;;;;;;36.05;16.58;;;;;;;-0.17;100.00;101095.66;5094818;28;20036;-64
2022/01/08 07:23:23;;;;;;;29.33;15.88;;;;;;;-0.22;100.00;101094.66;5094673;28;20082;-66
2022/01/08 07:25:50;;;;;;;35.65;15.68;;;;;;;-0.18;100.00;101107.66;5094329;28;20024;-65
2022/01/08 07:28:15;;;;;;;32.42;16.10;;;;;;;-0.14;100.00;101108.63;5094324;28;20024;-69
2022/01/08 07:30:40;;;;;;;32.85;16.17;;;;;;;-0.14;100.00;101111.19;5095685;28;20039;-68
2022/01/08 07:33:06;;;;;;;28.50;15.13;;;;;;;-0.08;100.00;101101.13;5098362;28;20028;-68
2022/01/08 07:35:31;;;;;;;34.80;16.17;;;;;;;-0.04;100.00;101098.72;5098348;28;20028;-68
2022/01/08 07:37:57;;;;;;;27.80;14.65;;;;;;;0.04;100.00;101098.94;5098193;28;20422;-68
2022/01/08 07:40:23;;;;;;;31.08;15.57;;;;;;;0.00;100.00;101108.25;5098231;28;20051;-69
2022/01/08 07:42:48;;;;;;;27.02;14.82;;;;;;;0.10;100.00;101112.03;5098192;28;20032;-68
2022/01/08 07:45:15;;;;;;;29.08;14.95;;;;;;;0.06;100.00;101104.16;5097901;28;20046;-68
2022/01/08 07:47:40;;;;;;;36.30;14.88;;;;;;;0.17;100.00;101100.25;5098014;28;20040;-66
2022/01/08 07:50:07;;;;;;;30.27;15.32;;;;;;;0.09;100.00;101094.84;5098106;28;20339;-67
2022/01/08 07:52:33;;;;;;;33.17;14.68;;;;;;;0.17;100.00;101097.69;5117727;28;20358;-69
2022/01/08 07:54:58;;;;;;;33.28;14.00;;;;;;;0.22;100.00;101096.09;5118170;28;20027;-69
2022/01/08 07:57:24;;;;;;;27.23;11.90;;;;;;;0.22;100.00;101086.69;5117871;28;20024;-70
2022/01/08 07:59:49;;;;;;;26.52;11.60;;;;;;;0.38;100.00;101093.19;5118151;28;20389;-68
2022/01/08 08:02:14;;;;;;;28.77;13.73;;;;;;;0.29;100.00;101078.34;5118099;28;20106;-69
2022/01/08 08:04:39;;;;;;;33.53;13.77;;;;;;;0.37;100.00;101076.00;5118118;28;20377;-70
2022/01/08 08:07:05;;;;;;;27.02;13.95;;;;;;;0.32;100.00;101078.44;5101281;28;20031;-69
2022/01/08 08:09:30;;;;;;;27.58;13.07;;;;;;;0.45;100.00;101076.25;5097165;28;20043;-72
2022/01/08 08:11:55;;;;;;;29.60;14.18;;;;;;;0.45;100.00;101074.56;5096801;28;20034;-70
2022/01/08 08:14:21;;;;;;;26.50;13.70;;;;;;;0.45;100.00;101071.97;5097281;28;20064;-67
2022/01/08 08:16:46;;;;;;;24.40;12.85;;;;;;;0.46;100.00;101063.44;5097019;28;20031;-66
2022/01/08 08:19:11;;;;;;;29.15;14.50;;;;;;;0.56;100.00;101062.88;5097103;28;20036;-66
2022/01/08 08:21:37;;;;;;;31.38;14.27;;;;;;;0.56;100.00;101072.28;5096858;28;20032;-65
2022/01/08 08:24:04;;;;;;;28.83;14.35;;;;;;;0.60;100.00;101066.41;5096826;28;20032;-66
2022/01/08 08:26:30;;;;;;;29.95;14.43;;;;;;;0.64;100.00;101055.38;5096398;28;20435;-65
2022/01/08 08:28:55;;;;;;;35.42;16.08;;;;;;;0.65;100.00;101052.00;5096721;28;20138;-69
2022/01/08 08:31:20;;;;;;;33.63;15.30;;;;;;;0.72;100.00;101053.91;5096750;28;20032;-68
2022/01/08 08:33:46;;;;;;;34.20;16.27;;;;;;;0.82;100.00;101052.47;5096891;28;20040;-66
2022/01/08 08:36:11;;;;;;;34.50;17.17;;;;;;;0.75;100.00;101048.84;5096769;28;20028;-64
2022/01/08 08:38:36;;;;;;;33.80;16.55;;;;;;;0.83;100.00;101062.84;5096835;28;20042;-67
2022/01/08 08:41:01;;;;;;;35.20;17.55;;;;;;;0.79;100.00;101049.81;5096608;28;20437;-65
2022/01/08 08:43:27;;;;;;;33.63;16.27;;;;;;;0.88;100.00;101055.22;5095768;28;20028;-67
2022/01/08 08:45:52;;;;;;;35.92;17.13;;;;;;;0.97;100.00;101043.50;5096446;28;20031;-66
2022/01/08 08:48:17;;;;;;;33.67;17.10;;;;;;;1.00;100.00;101046.16;5096564;28;20028;-66
2022/01/08 08:50:44;;;;;;;37.60;18.08;;;;;;;0.99;100.00;101047.00;5096615;28;20030;-66
2022/01/08 08:53:10;;;;;;;37.90;17.20;;;;;;;1.07;100.00;101049.75;5096717;28;20036;-67
2022/01/08 08:55:36;;;;;;;32.53;16.20;;;;;;;1.08;100.00;101048.06;5096421;28;20055;-66
2022/01/08 08:58:01;;;;;;;36.67;19.10;;;;;;;1.07;100.00;101046.31;5096259;28;20447;-66
2022/01/08 09:00:26;;;;;;;33.25;17.48;;;;;;;1.11;100.00;101032.69;5096719;28;20164;-69
2022/01/08 09:02:52;;;;;;;38.35;18.48;;;;;;;1.09;100.00;101044.66;5096610;28;20070;-66
2022/01/08 09:05:17;;;;;;;37.13;18.25;;;;;;;1.24;100.00;101048.53;5095962;28;20397;-66
2022/01/08 09:07:43;;;;;;;36.15;18.48;;;;;;;1.32;100.00;101041.88;5096153;28;20031;-68
2022/01/08 09:10:09;;;;;;;37.15;19.17;;;;;;;1.36;100.00;101053.16;5096254;28;20024;-69
2022/01/08 09:12:36;;;;;;;43.58;19.35;;;;;;;1.28;100.00;101046.91;5096520;28;20028;-66
2022/01/08 09:15:02;;;;;;;41.75;17.90;;;;;;;1.32;100.00;101048.75;5096679;28;20058;-68
2022/01/08 09:17:27;;;;;;;39.58;19.38;;;;;;;1.38;100.00;101049.81;5096521;28;20028;-66
2022/01/08 09:19:52;;;;;;;35.70;18.17;;;;;;;1.44;100.00;101048.19;5096402;28;20053;-67
2022/01/08 09:22:18;;;;;;;37.03;19.55;;;;;;;1.44;100.00;101037.88;5096303;28;20027;-66
2022/01/08 09:24:45;;;;;;;37.00;18.25;;;;;;;1.46;100.00;101031.06;5095871;28;20115;-67
2022/01/08 09:27:10;;;;;;;38.55;19.67;;;;;;;1.48;100.00;101030.28;5095918;28;20339;-65
2022/01/08 09:29:36;;;;;;;40.50;19.70;;;;;;;1.49;100.00;101021.72;5095962;28;20039;-66
2022/01/08 09:32:04;;;;;;;36.33;18.55;;;;;;;1.52;100.00;101019.22;5095871;28;20032;-68
2022/01/08 09:34:29;;;;;;;38.67;18.80;;;;;;;1.45;100.00;101012.13;5095876;28;20066;-65
2022/01/08 09:36:54;;;;;;;39.10;19.88;;;;;;;1.50;100.00;101007.97;5095963;28;20060;-65
2022/01/08 09:39:20;;;;;;;39.80;18.92;;;;;;;1.59;100.00;101013.38;5095642;28;20454;-66
2022/01/08 09:41:45;;;;;;;38.17;19.63;;;;;;;1.59;100.00;101005.63;5095764;28;20039;-67
2022/01/08 09:44:11;;;;;;;42.42;21.67;;;;;;;1.57;100.00;100994.41;5095736;28;20465;-67
2022/01/08 09:46:37;;;;;;;44.13;20.98;;;;;;;1.73;100.00;100996.53;5095876;28;20332;-68
2022/01/08 09:49:03;;;;;;;37.95;19.95;;;;;;;1.78;100.00;100993.19;5095471;28;20194;-68
2022/01/08 09:51:28;;;;;;;32.45;17.98;;;;;;;1.87;100.00;100977.94;5095437;28;20354;-67
2022/01/08 09:53:54;;;;;;;38.00;19.17;;;;;;;1.92;100.00;100981.47;5094745;28;20027;-70
2022/01/08 09:56:22;;;;;;;41.65;19.90;;;;;;;1.92;100.00;100971.16;5095222;28;20066;-68
2022/01/08 09:58:48;;;;;;;36.25;18.80;;;;;;;1.97;100.00;100964.41;5095164;28;20043;-69
2022/01/08 10:01:26;;;;;;;43.55;19.55;;;;;;;1.98;100.00;100961.00;5095291;28;20031;-67
2022/01/08 10:03:52;;;;;;;41.85;20.30;;;;;;;1.96;100.00;100962.66;5095561;28;20423;-68
2022/01/08 10:06:31;;;;;;;40.58;19.88;;;;;;;1.96;100.00;100948.06;5095879;28;20428;-66
2022/01/08 10:08:58;;;;;;;42.10;20.42;;;;;;;1.96;100.00;100942.03;5095365;28;20045;-69
2022/01/08 10:11:24;;;;;;;40.75;20.15;;;;;;;2.01;100.00;100925.81;5095224;28;20066;-67
2022/01/08 10:14:00;;;;;;;42.97;19.70;;;;;;;2.02;100.00;100918.94;5094828;28;20120;-67
2022/01/08 10:19:25;;;;;;;41.50;20.08;;;;;;;2.09;100.00;100898.44;5095401;28;20043;-68
2022/01/08 10:21:52;;;;;;;39.25;18.70;;;;;;;2.11;100.00;100898.47;5078066;28;20344;-63
2022/01/08 10:24:20;;;;;;;44.17;18.08;;;;;;;2.17;100.00;100885.72;5095476;28;20035;-68
2022/01/08 10:26:45;;;;;;;37.88;18.38;;;;;;;2.13;100.00;100871.00;5094949;28;20047;-68
2022/01/08 10:29:14;;;;;;;38.30;17.45;;;;;;;2.32;100.00;100883.44;5093621;28;20032;-67
2022/01/08 10:31:41;;;;;;;34.95;16.95;;;;;;;2.30;100.00;100876.50;5094737;28;20032;-67
2022/01/08 10:34:12;;;;;;;34.10;16.30;;;;;;;2.32;100.00;100880.88;5094728;28;20020;-67
2022/01/08 10:36:43;;;;;;;28.90;12.00;;;;;;;2.34;100.00;100857.66;5094731;28;20031;-68
2022/01/08 10:39:19;;;;;;;36.67;16.73;;;;;;;2.38;100.00;100874.97;5094529;28;20044;-68
2022/01/08 10:41:46;;;;;;;32.08;14.65;;;;;;;2.46;100.00;100860.47;5094187;28;20036;-68
2022/01/08 10:44:13;;;;;;;33.47;16.88;;;;;;;2.41;100.00;100865.56;5094514;28;20036;-66
2022/01/08 10:47:05;;;;;;;34.45;17.02;;;;;;;2.48;100.00;100835.56;5094791;28;20347;-68
2022/01/08 10:49:35;;;;;;;32.08;16.02;;;;;;;2.54;100.00;100842.56;5094301;28;20451;-68
2022/01/08 10:52:04;;;;;;;31.08;15.90;;;;;;;2.52;100.00;100833.91;5094637;28;20057;-67
2022/01/08 10:54:32;;;;;;;35.00;16.08;;;;;;;2.58;100.00;100822.00;5094326;28;20032;-67
2022/01/08 10:57:02;;;;;;;25.50;15.02;;;;;;;2.51;100.00;100814.97;5094323;28;20032;-66
2022/01/08 10:59:29;;;;;;;30.50;16.33;;;;;;;2.56;100.00;100818.50;5094168;28;20523;-68
2022/01/08 11:02:10;;;;;;;31.02;14.52;;;;;;;2.70;100.00;100811.88;5094298;28;20459;-68
2022/01/08 11:04:37;;;;;;;28.80;15.27;;;;;;;2.67;100.00;100800.59;5110547;28;20038;-68
2022/01/08 11:07:17;;;;;;;29.38;12.90;;;;;;;2.71;100.00;100792.06;5118222;28;20125;-66
2022/01/08 11:09:45;;;;;;;25.63;13.18;;;;;;;2.71;100.00;100792.06;5118734;28;20052;-67
2022/01/08 11:12:26;;;;;;;26.13;12.30;;;;;;;2.79;99.33;100778.44;5119090;28;20110;-70
2022/01/08 11:17:25;;;;;;;22.77;11.27;;;;;;;2.93;99.10;100751.97;5106834;28;20050;-67
2022/01/08 11:19:56;;;;;;;18.83;9.65;;;;;;;2.90;99.35;100750.19;5107699;28;20030;-67
2022/01/08 11:22:24;;;;;;;25.42;10.88;;;;;;;2.85;99.41;100745.78;5098161;28;20031;-66
2022/01/08 11:24:51;;;;;;;24.13;11.30;;;;;;;2.82;100.00;100736.28;5098149;28;20296;-68
2022/01/08 11:27:20;;;;;;;22.65;11.52;;;;;;;2.84;99.60;100720.78;5098173;28;20431;-70